Time;durP1;ratioP1;P1;durP2;ratioP2;P2;SDS_P1;SDS_P2;PMS_P1;PMS_P2;Temp;Humidity;BMP_temperature;BMP_pressure;BME280_temperature;BME280_humidity;BME280_pressure;Samples;Min_cycle;Max_cycle;Signal;HPM_P1;HPM_P2
2023/10/29 00:01:28;;;;;;;2.88;1.23;;;;;;;11.21;100.00;98953.22;5065358;28;20437;-70
2023/10/29 00:03:54;;;;;;;2.67;1.10;;;;;;;11.22;100.00;98954.97;5052275;28;20387;-70
2023/10/29 00:06:19;;;;;;;2.50;0.90;;;;;;;11.26;100.00;98945.44;5068385;28;20030;-70
2023/10/29 00:08:45;;;;;;;2.83;1.33;;;;;;;11.26;100.00;98943.69;5080707;28;20025;-70
2023/10/29 00:11:13;;;;;;;2.63;0.80;;;;;;;11.28;100.00;98941.97;5068362;28;20464;-70
2023/10/29 00:13:38;;;;;;;1.35;0.98;;;;;;;11.31;100.00;98935.06;5054517;28;20032;-69
2023/10/29 00:16:03;;;;;;;5.05;1.10;;;;;;;11.34;100.00;98929.84;5065327;28;20515;-69
2023/10/29 00:18:29;;;;;;;2.83;1.00;;;;;;;11.37;100.00;98919.50;5054498;28;20035;-70
2023/10/29 00:20:54;;;;;;;2.95;1.13;;;;;;;11.40;100.00;98903.94;5057919;28;20381;-69
2023/10/29 00:23:19;;;;;;;3.85;0.80;;;;;;;11.43;100.00;98908.22;5058662;28;20035;-70
2023/10/29 00:25:45;;;;;;;5.10;1.10;;;;;;;11.44;100.00;98891.81;5074480;28;20035;-69
2023/10/29 00:28:11;;;;;;;2.55;1.17;;;;;;;11.45;100.00;98872.78;5075447;28;20032;-69
2023/10/29 00:30:37;;;;;;;1.75;0.98;;;;;;;11.46;100.00;98862.41;5064074;28;20422;-70
2023/10/29 00:33:02;;;;;;;5.03;1.30;;;;;;;11.45;100.00;98854.63;5068482;28;20028;-69
2023/10/29 00:35:27;;;;;;;3.13;1.10;;;;;;;11.46;100.00;98852.03;5077907;28;20059;-68
2023/10/29 00:37:53;;;;;;;3.08;1.05;;;;;;;11.45;100.00;98850.31;5069255;28;20334;-70
2023/10/29 00:40:18;;;;;;;2.35;1.35;;;;;;;11.46;100.00;98856.38;5056482;28;20036;-70
2023/10/29 00:42:43;;;;;;;3.15;1.23;;;;;;;11.47;100.00;98842.53;5046528;28;20051;-69
2023/10/29 00:45:09;;;;;;;1.83;0.90;;;;;;;11.49;100.00;98867.59;5047362;28;20043;-70
2023/10/29 00:47:35;;;;;;;2.33;0.88;;;;;;;11.49;100.00;98893.53;5051639;28;20084;-70
2023/10/29 00:50:01;;;;;;;1.50;0.88;;;;;;;11.51;100.00;98881.41;5067098;28;20512;-70
2023/10/29 00:52:27;;;;;;;3.42;0.90;;;;;;;11.56;100.00;98883.13;5079640;28;20032;-70
2023/10/29 00:54:53;;;;;;;3.97;0.93;;;;;;;11.63;100.00;98879.66;5079029;28;20456;-70
2023/10/29 00:57:19;;;;;;;3.22;0.60;;;;;;;11.66;100.00;98879.63;5085231;28;20069;-70
2023/10/29 00:59:45;;;;;;;2.83;0.80;;;;;;;11.75;100.00;98869.22;5075219;28;20028;-69
2023/10/29 01:02:10;;;;;;;2.83;0.77;;;;;;;11.78;100.00;98863.16;5084088;28;20020;-70
2023/10/29 01:04:36;;;;;;;6.25;1.08;;;;;;;11.84;100.00;98867.44;5086613;28;20349;-70
2023/10/29 01:07:02;;;;;;;2.20;0.82;;;;;;;11.92;100.00;98850.13;5077551;28;20029;-70
2023/10/29 01:09:28;;;;;;;2.17;0.60;;;;;;;11.95;100.00;98857.00;5076020;28;20028;-70
2023/10/29 01:11:53;;;;;;;4.55;0.70;;;;;;;12.00;100.00;98852.66;5071293;28;20029;-69
2023/10/29 01:14:18;;;;;;;0.80;0.55;;;;;;;12.05;100.00;98857.84;5083966;28;20080;-69
2023/10/29 01:16:44;;;;;;;3.33;0.75;;;;;;;12.13;100.00;98853.47;5069901;28;20341;-69
2023/10/29 01:19:09;;;;;;;2.58;0.63;;;;;;;12.14;100.00;98839.66;5077165;28;20478;-69
2023/10/29 01:21:35;;;;;;;3.95;0.50;;;;;;;12.13;100.00;98838.78;5077635;28;20056;-69
2023/10/29 01:24:02;;;;;;;3.25;0.75;;;;;;;12.10;100.00;98823.22;5074010;28;20038;-70
2023/10/29 01:26:27;;;;;;;1.98;0.70;;;;;;;12.07;100.00;98828.38;5090451;28;20024;-70
2023/10/29 01:28:52;;;;;;;1.30;0.52;;;;;;;12.07;100.00;98832.72;5069767;28;20491;-70
2023/10/29 01:31:18;;;;;;;3.33;0.70;;;;;;;12.06;100.00;98838.78;5069779;28;20380;-70
2023/10/29 01:33:43;;;;;;;1.88;0.82;;;;;;;12.03;100.00;98838.81;5075947;28;20213;-69
2023/10/29 01:36:08;;;;;;;2.42;0.50;;;;;;;12.05;100.00;98837.94;5073117;28;20063;-70
2023/10/29 01:38:33;;;;;;;1.88;0.95;;;;;;;12.08;100.00;98830.13;5060768;28;20507;-70
2023/10/29 01:40:59;;;;;;;2.33;0.65;;;;;;;12.08;100.00;98814.53;5060698;28;20056;-70
2023/10/29 01:43:25;;;;;;;2.25;0.60;;;;;;;12.09;100.00;98812.78;5069354;28;20162;-70
2023/10/29 01:45:51;;;;;;;3.25;0.70;;;;;;;12.09;100.00;98805.00;5070365;28;20359;-70
2023/10/29 01:48:17;;;;;;;2.20;0.80;;;;;;;12.09;100.00;98805.00;5069863;28;20030;-70
2023/10/29 01:50:43;;;;;;;2.58;0.90;;;;;;;12.09;100.00;98805.00;5070321;28;20187;-69
2023/10/29 01:53:09;;;;;;;1.73;0.45;;;;;;;12.08;100.00;98803.28;5070457;28;20016;-70
2023/10/29 01:55:37;;;;;;;2.53;0.70;;;;;;;12.06;100.00;98802.44;5085268;28;20058;-69
2023/10/29 01:58:03;;;;;;;0.98;0.50;;;;;;;12.03;100.00;98805.06;5067770;28;20036;-70
2023/10/29 02:00:28;;;;;;;3.42;0.70;;;;;;;12.03;100.00;98815.44;5053752;28;20020;-71
2023/10/29 02:02:54;;;;;;;2.45;0.70;;;;;;;11.99;100.00;98799.91;5059157;28;20021;-70
2023/10/29 02:05:19;;;;;;;2.22;0.70;;;;;;;11.96;100.00;98812.03;5071538;28;20027;-70
2023/10/29 02:07:45;;;;;;;2.13;0.80;;;;;;;11.94;100.00;98811.16;5075992;28;20086;-69
2023/10/29 02:10:10;;;;;;;1.83;0.70;;;;;;;11.93;100.00;98810.31;5068157;28;20020;-70
2023/10/29 02:12:35;;;;;;;1.90;0.65;;;;;;;11.92;100.00;98821.56;5069506;28;20319;-69
2023/10/29 02:15:01;;;;;;;1.20;0.52;;;;;;;11.93;100.00;98830.19;5057019;28;20206;-70
2023/10/29 02:17:27;;;;;;;2.45;0.70;;;;;;;11.93;100.00;98820.69;5050509;28;20530;-70
2023/10/29 02:19:55;;;;;;;2.78;0.60;;;;;;;11.92;100.00;98818.97;5074339;28;20054;-70
2023/10/29 02:22:20;;;;;;;2.15;0.73;;;;;;;11.92;100.00;98818.97;5077677;28;20027;-70
2023/10/29 02:24:46;;;;;;;1.58;0.73;;;;;;;11.92;100.00;98800.81;5076534;28;20027;-70
2023/10/29 02:27:11;;;;;;;0.65;0.60;;;;;;;11.92;100.00;98828.47;5080762;28;20020;-70
2023/10/29 02:29:36;;;;;;;0.88;0.60;;;;;;;11.93;100.00;98817.22;5069320;28;20036;-67
2023/10/29 02:32:01;;;;;;;2.08;0.70;;;;;;;11.94;100.00;98811.16;5052301;28;20035;-70
2023/10/29 02:34:27;;;;;;;9.98;1.25;;;;;;;11.96;100.00;98820.66;5069455;28;20388;-69
2023/10/29 02:36:52;;;;;;;3.65;0.82;;;;;;;11.95;100.00;98824.13;5068506;28;20023;-69
2023/10/29 02:39:17;;;;;;;2.28;0.90;;;;;;;11.94;100.00;98822.44;5063004;28;20024;-70
2023/10/29 02:41:43;;;;;;;1.65;0.77;;;;;;;11.94;100.00;98821.56;5068704;28;20033;-66
2023/10/29 02:44:08;;;;;;;5.20;0.85;;;;;;;11.94;100.00;98822.44;5056235;28;20060;-69
2023/10/29 02:46:35;;;;;;;1.08;0.68;;;;;;;11.95;100.00;98805.09;5055392;28;20508;-66
2023/10/29 02:49:02;;;;;;;5.65;0.95;;;;;;;11.98;100.00;98802.50;5065134;28;20476;-70
2023/10/29 02:51:27;;;;;;;0.80;0.40;;;;;;;12.01;100.00;98807.66;5067920;28;20117;-69
2023/10/29 02:53:52;;;;;;;1.52;0.55;;;;;;;12.05;100.00;98805.91;5056878;28;20183;-69
2023/10/29 02:56:18;;;;;;;2.22;0.50;;;;;;;12.12;100.00;98810.22;5065219;28;20111;-69
2023/10/29 02:58:43;;;;;;;2.33;0.40;;;;;;;12.16;100.00;98806.72;5068109;28;20024;-70
2023/10/29 03:01:09;;;;;;;0.95;0.60;;;;;;;12.21;100.00;98802.38;5074724;28;20450;-70
2023/10/29 03:03:35;;;;;;;2.58;0.50;;;;;;;12.27;100.00;98803.22;5075443;28;20029;-69
2023/10/29 03:06:05;;;;;;;4.82;0.60;;;;;;;12.28;100.00;98815.31;5073685;28;20077;-70
2023/10/29 03:08:30;;;;;;;2.50;0.60;;;;;;;12.32;100.00;98809.22;5085969;28;20020;-68
2023/10/29 03:10:56;;;;;;;1.90;0.50;;;;;;;12.34;100.00;98802.28;5068034;28;20028;-69
2023/10/29 03:13:21;;;;;;;2.47;0.60;;;;;;;12.31;100.00;98803.16;5068706;28;20031;-70
2023/10/29 03:15:46;;;;;;;1.52;0.43;;;;;;;12.33;100.00;98787.56;5058669;28;20039;-69
2023/10/29 03:18:13;;;;;;;0.43;0.30;;;;;;;12.37;100.00;98804.84;5069672;28;20051;-69
2023/10/29 03:20:38;;;;;;;0.30;0.30;;;;;;;12.43;100.00;98804.78;5063506;28;20358;-69
2023/10/29 03:23:04;;;;;;;0.70;0.40;;;;;;;12.51;100.00;98801.28;5063984;28;20033;-69
2023/10/29 03:25:29;;;;;;;1.25;0.52;;;;;;;12.54;100.00;98812.50;5077199;28;20681;-69
2023/10/29 03:27:56;;;;;;;1.85;0.40;;;;;;;12.58;100.00;98811.59;5077338;28;20042;-69
2023/10/29 03:30:21;;;;;;;1.30;0.50;;;;;;;12.61;100.00;98824.56;5080493;28;20099;-70
2023/10/29 03:32:47;;;;;;;1.35;0.50;;;;;;;12.59;100.00;98812.47;5080029;28;20103;-69
2023/10/29 03:35:12;;;;;;;4.72;0.55;;;;;;;12.58;100.00;98818.53;5082318;28;20031;-70
2023/10/29 03:37:38;;;;;;;1.40;0.40;;;;;;;12.55;100.00;98815.97;5070504;28;20054;-70
2023/10/29 03:40:03;;;;;;;0.75;0.40;;;;;;;12.53;100.00;98825.50;5073238;28;20450;-70
2023/10/29 03:42:28;;;;;;;0.82;0.38;;;;;;;12.49;100.00;98828.13;5065454;28;20053;-67
2023/10/29 03:44:54;;;;;;;2.03;0.32;;;;;;;12.45;100.00;98823.81;5056084;28;20123;-68
2023/10/29 03:47:19;;;;;;;1.48;0.38;;;;;;;12.41;100.00;98822.13;5052122;28;20469;-70
2023/10/29 03:49:45;;;;;;;0.73;0.40;;;;;;;12.43;100.00;98822.13;5057854;28;20016;-69
2023/10/29 03:52:10;;;;;;;1.08;0.50;;;;;;;12.44;100.00;98814.31;5060100;28;20467;-70
2023/10/29 03:54:35;;;;;;;1.30;0.50;;;;;;;12.43;100.00;98822.97;5070405;28;20032;-69
2023/10/29 03:57:01;;;;;;;1.65;0.40;;;;;;;12.44;100.00;98808.25;5069626;28;20027;-70
2023/10/29 03:59:26;;;;;;;2.00;0.50;;;;;;;12.42;100.00;98818.66;5067684;28;20024;-70
2023/10/29 04:01:51;;;;;;;1.02;0.50;;;;;;;12.41;100.00;98809.13;5067701;28;20029;-70
2023/10/29 04:04:16;;;;;;;1.35;0.50;;;;;;;12.41;100.00;98816.09;5068144;28;20025;-70
2023/10/29 04:06:43;;;;;;;2.08;0.70;;;;;;;12.40;100.00;98820.41;5068580;28;20338;-69
2023/10/29 04:09:09;;;;;;;3.28;0.80;;;;;;;12.37;100.00;98817.84;5068128;28;20020;-70
2023/10/29 04:11:35;;;;;;;1.73;0.60;;;;;;;12.38;100.00;98824.75;5068047;28;20425;-70
2023/10/29 04:14:01;;;;;;;2.45;0.50;;;;;;;12.37;100.00;98820.44;5061518;28;20059;-68
2023/10/29 04:16:26;;;;;;;2.95;0.60;;;;;;;12.40;100.00;98815.22;5049088;28;20028;-70
2023/10/29 04:18:52;;;;;;;2.08;0.50;;;;;;;12.39;100.00;98818.69;5054634;28;20408;-70
2023/10/29 04:21:17;;;;;;;1.20;0.60;;;;;;;12.41;100.00;98826.47;5054697;28;20555;-68
2023/10/29 04:23:42;;;;;;;0.98;0.60;;;;;;;12.41;100.00;98821.28;5061147;28;20070;-70
2023/10/29 04:26:07;;;;;;;2.67;0.73;;;;;;;12.40;100.00;98836.00;5080402;28;20016;-70
2023/10/29 04:28:33;;;;;;;0.85;0.40;;;;;;;12.41;100.00;98832.50;5069857;28;20024;-69
2023/10/29 04:30:58;;;;;;;1.38;0.63;;;;;;;12.41;100.00;98832.50;5073123;28;20115;-69
2023/10/29 04:33:24;;;;;;;1.25;0.47;;;;;;;12.42;100.00;98833.38;5073580;28;20013;-70
2023/10/29 04:35:49;;;;;;;1.80;0.47;;;;;;;12.45;100.00;98842.00;5079237;28;20020;-69
2023/10/29 04:38:14;;;;;;;3.72;0.60;;;;;;;12.44;100.00;98827.31;5054667;28;20024;-69
2023/10/29 04:40:39;;;;;;;1.90;0.68;;;;;;;12.44;100.00;98824.72;5079557;28;20031;-68
2023/10/29 04:43:05;;;;;;;0.98;0.47;;;;;;;12.44;100.00;98836.84;5046714;28;20449;-69
2023/10/29 04:45:30;;;;;;;3.30;0.70;;;;;;;12.42;100.00;98839.44;5045296;28;20025;-70
2023/10/29 04:47:56;;;;;;;2.92;0.75;;;;;;;12.38;100.00;98831.69;5021281;28;20029;-69
2023/10/29 04:50:21;;;;;;;0.82;0.50;;;;;;;12.35;100.00;98840.34;5033380;28;20454;-69
2023/10/29 04:52:46;;;;;;;2.17;0.50;;;;;;;12.33;100.00;98823.91;5026397;28;20021;-69
2023/10/29 04:55:11;;;;;;;2.40;0.60;;;;;;;12.33;100.00;98829.13;5023965;28;20481;-70
2023/10/29 04:57:37;;;;;;;4.30;0.80;;;;;;;12.37;100.00;98849.00;5032943;28;20025;-69
2023/10/29 05:00:04;;;;;;;2.55;0.70;;;;;;;12.38;100.00;98832.53;5025315;28;20029;-70
2023/10/29 05:02:29;;;;;;;4.60;1.38;;;;;;;12.41;100.00;98839.47;5024719;28;20030;-69
2023/10/29 05:04:55;;;;;;;3.78;1.15;;;;;;;12.41;100.00;98837.69;5033944;28;20044;-69
2023/10/29 05:07:20;;;;;;;2.85;0.50;;;;;;;12.40;100.00;98827.31;5026905;28;20033;-70
2023/10/29 05:09:46;;;;;;;1.70;0.63;;;;;;;12.40;100.00;98830.78;5025112;28;20382;-69
2023/10/29 05:12:11;;;;;;;1.95;0.93;;;;;;;12.39;100.00;98844.66;5031673;28;20025;-69
2023/10/29 05:14:37;;;;;;;2.70;0.90;;;;;;;12.37;100.00;98862.00;5025936;28;20047;-70
2023/10/29 05:17:02;;;;;;;2.75;0.60;;;;;;;12.31;100.00;98860.28;5032079;28;20112;-69
2023/10/29 05:19:27;;;;;;;4.63;1.00;;;;;;;12.24;100.00;98872.47;5024533;28;20036;-69
2023/10/29 05:21:53;;;;;;;2.05;0.85;;;;;;;12.22;100.00;98882.00;5034856;28;20109;-70
2023/10/29 05:24:18;;;;;;;3.28;0.90;;;;;;;12.18;100.00;98893.25;5034952;28;20028;-68
2023/10/29 05:26:43;;;;;;;1.83;0.82;;;;;;;12.09;100.00;98877.69;5037206;28;20495;-70
2023/10/29 05:29:09;;;;;;;4.75;0.68;;;;;;;11.97;100.00;98879.50;5035175;28;20107;-70
2023/10/29 05:31:34;;;;;;;3.22;1.05;;;;;;;11.85;100.00;98885.63;5030075;28;20512;-70
2023/10/29 05:34:00;;;;;;;3.53;0.63;;;;;;;11.79;100.00;98884.75;5030421;28;20025;-70
2023/10/29 05:36:26;;;;;;;2.72;0.57;;;;;;;11.72;100.00;98883.94;5029817;28;20044;-69
2023/10/29 05:38:51;;;;;;;2.83;0.68;;;;;;;11.62;100.00;98899.53;5030506;28;20025;-69
2023/10/29 05:41:17;;;;;;;6.22;0.75;;;;;;;11.46;100.00;98892.69;5040114;28;20052;-67
2023/10/29 05:43:42;;;;;;;3.05;0.60;;;;;;;11.39;100.00;98877.13;5070192;28;20026;-70
2023/10/29 05:46:15;;;;;;;4.47;0.60;;;;;;;11.34;100.00;98885.78;5055501;28;20531;-70
2023/10/29 05:48:41;;;;;;;2.25;0.52;;;;;;;11.35;100.00;98900.50;5066146;28;20033;-68
2023/10/29 05:51:10;;;;;;;2.05;0.60;;;;;;;11.28;100.00;98909.97;5073804;28;20380;-70
2023/10/29 05:53:38;;;;;;;3.10;0.43;;;;;;;11.23;100.00;98911.72;5062923;28;20021;-68
2023/10/29 05:56:04;;;;;;;2.05;0.57;;;;;;;11.19;100.00;98920.41;5061606;28;20044;-69
2023/10/29 05:58:29;;;;;;;2.80;0.68;;;;;;;11.20;100.00;98935.06;5078307;28;20064;-69
2023/10/29 06:00:54;;;;;;;1.55;0.40;;;;;;;11.17;100.00;98941.13;5074887;28;20130;-70
2023/10/29 06:03:20;;;;;;;2.88;0.60;;;;;;;11.14;100.00;98935.94;5072469;28;20035;-70
2023/10/29 06:05:45;;;;;;;1.45;0.60;;;;;;;11.12;100.00;98945.44;5072530;28;20013;-69
2023/10/29 06:08:10;;;;;;;1.73;0.68;;;;;;;11.09;100.00;98950.63;5066971;28;20020;-69
2023/10/29 06:10:35;;;;;;;2.80;0.80;;;;;;;11.04;100.00;98955.81;5063801;28;20476;-69
2023/10/29 06:13:01;;;;;;;4.63;1.77;;;;;;;11.02;100.00;98963.59;5068908;28;20025;-68
2023/10/29 06:15:26;;;;;;;3.83;0.73;;;;;;;11.03;100.00;98961.84;5072543;28;20031;-70
2023/10/29 06:17:53;;;;;;;2.42;0.70;;;;;;;11.02;100.00;98971.38;5068545;28;20035;-70
2023/10/29 06:20:20;;;;;;;4.40;1.00;;;;;;;11.00;100.00;98975.69;5067500;28;20024;-68
2023/10/29 06:22:47;;;;;;;5.25;0.95;;;;;;;10.98;100.00;98977.41;5065553;28;20055;-69
2023/10/29 06:25:16;;;;;;;5.55;1.10;;;;;;;10.98;100.00;98990.38;5058307;28;20106;-70
2023/10/29 06:27:41;;;;;;;5.90;0.85;;;;;;;10.93;100.00;98987.78;5061584;28;20032;-69
2023/10/29 06:30:08;;;;;;;5.85;1.10;;;;;;;10.93;100.00;98992.97;5073157;28;20020;-69
2023/10/29 06:32:33;;;;;;;7.13;1.40;;;;;;;10.93;100.00;98995.56;5071381;28;20163;-70
2023/10/29 06:34:58;;;;;;;8.13;1.40;;;;;;;10.93;100.00;98997.28;5061576;28;20310;-69
2023/10/29 06:37:24;;;;;;;4.20;1.00;;;;;;;10.93;100.00;98994.69;5068397;28;20025;-68
2023/10/29 06:39:49;;;;;;;5.35;1.15;;;;;;;10.89;100.00;98995.53;5063108;28;20031;-70
2023/10/29 06:42:14;;;;;;;6.43;1.15;;;;;;;10.86;100.00;99000.72;5064704;28;20124;-69
2023/10/29 06:44:40;;;;;;;7.32;1.33;;;;;;;10.81;100.00;99013.69;5080873;28;20023;-69
2023/10/29 06:47:05;;;;;;;6.07;1.30;;;;;;;10.75;100.00;99011.94;5070935;28;20059;-68
2023/10/29 06:49:30;;;;;;;7.00;1.45;;;;;;;10.75;100.00;99013.66;5082528;28;20081;-69
2023/10/29 06:51:56;;;;;;;7.90;1.77;;;;;;;10.73;100.00;99018.84;5085796;28;20066;-69
2023/10/29 06:54:21;;;;;;;3.70;0.73;;;;;;;10.74;100.00;99024.91;5079643;28;20551;-69
2023/10/29 06:56:47;;;;;;;4.93;0.90;;;;;;;10.75;100.00;99021.44;5067693;28;20023;-69
2023/10/29 06:59:13;;;;;;;4.13;1.10;;;;;;;10.78;100.00;99024.03;5066119;28;20561;-67
2023/10/29 07:01:38;;;;;;;5.30;0.95;;;;;;;10.78;100.00;99029.22;5070950;28;20035;-69
2023/10/29 07:04:03;;;;;;;5.72;0.95;;;;;;;10.76;100.00;99043.88;5077703;28;20703;-70
2023/10/29 07:06:30;;;;;;;6.57;1.25;;;;;;;10.76;100.00;99044.75;5079026;28;20036;-70
2023/10/29 07:08:56;;;;;;;6.25;1.20;;;;;;;10.78;100.00;99047.34;5073733;28;20035;-68
2023/10/29 07:11:21;;;;;;;5.47;1.50;;;;;;;10.80;100.00;99051.69;5080797;28;20499;-69
2023/10/29 07:13:46;;;;;;;5.25;0.95;;;;;;;10.80;100.00;99063.75;5071118;28;20073;-68
2023/10/29 07:16:16;;;;;;;7.35;1.50;;;;;;;10.80;100.00;99063.75;5066851;28;20047;-69
2023/10/29 07:18:41;;;;;;;8.75;1.45;;;;;;;10.78;100.00;99066.34;5071039;28;20035;-63
2023/10/29 07:21:07;;;;;;;4.40;0.93;;;;;;;10.78;100.00;99066.34;5058903;28;20426;-62
2023/10/29 07:23:32;;;;;;;3.63;1.10;;;;;;;10.80;100.00;99069.81;5065193;28;20024;-62
2023/10/29 07:25:57;;;;;;;6.97;1.60;;;;;;;10.87;100.00;99059.44;5070209;28;20035;-63
2023/10/29 07:28:22;;;;;;;7.47;1.85;;;;;;;10.90;100.00;99069.84;5084514;28;20034;-62
2023/10/29 07:30:48;;;;;;;7.57;1.25;;;;;;;10.91;100.00;99079.34;5071643;28;20379;-62
2023/10/29 07:33:14;;;;;;;6.35;1.65;;;;;;;10.94;100.00;99087.13;5065684;28;20417;-62
2023/10/29 07:35:39;;;;;;;5.85;1.08;;;;;;;10.97;100.00;99101.81;5077907;28;20025;-64
2023/10/29 07:38:07;;;;;;;4.72;1.10;;;;;;;11.01;100.00;99099.22;5059407;28;20275;-63
2023/10/29 07:40:33;;;;;;;4.07;1.50;;;;;;;11.05;100.00;99098.38;5059458;28;20032;-62
2023/10/29 07:42:58;;;;;;;9.48;1.90;;;;;;;11.10;100.00;99106.16;5060133;28;20510;-63
2023/10/29 07:45:24;;;;;;;4.55;1.17;;;;;;;11.14;100.00;99104.44;5054018;28;20021;-64
2023/10/29 07:47:49;;;;;;;6.63;1.48;;;;;;;11.21;100.00;99102.72;5051363;28;20025;-62
2023/10/29 07:50:16;;;;;;;6.20;1.30;;;;;;;11.26;100.00;99108.78;5058797;28;20028;-62
2023/10/29 07:52:41;;;;;;;7.07;1.35;;;;;;;11.29;100.00;99111.38;5065118;28;20020;-63
2023/10/29 07:55:08;;;;;;;5.85;1.60;;;;;;;11.32;100.00;99106.19;5072033;28;20557;-63
2023/10/29 07:57:33;;;;;;;7.28;1.38;;;;;;;11.32;100.00;99118.28;5065014;28;20020;-62
2023/10/29 07:59:58;;;;;;;6.85;1.40;;;;;;;11.33;100.00;99126.09;5070832;28;20198;-62
2023/10/29 08:02:25;;;;;;;5.25;1.27;;;;;;;11.37;100.00;99120.03;5073062;28;20047;-61
2023/10/29 08:04:50;;;;;;;6.97;1.67;;;;;;;11.40;100.00;99111.41;5077614;28;20025;-62
2023/10/29 08:07:16;;;;;;;4.18;1.38;;;;;;;11.45;100.00;99117.47;5068059;28;20040;-62
2023/10/29 08:09:41;;;;;;;8.18;1.27;;;;;;;11.50;100.00;99113.13;5069671;28;20016;-62
2023/10/29 08:12:07;;;;;;;6.88;1.52;;;;;;;11.58;100.00;99125.25;5072837;28;20118;-63
2023/10/29 08:14:32;;;;;;;6.35;1.42;;;;;;;11.63;100.00;99128.69;5066949;28;20066;-62
2023/10/29 08:16:57;;;;;;;5.75;1.30;;;;;;;11.69;100.00;99128.72;5066659;28;20029;-62
2023/10/29 08:19:23;;;;;;;6.95;1.38;;;;;;;11.74;100.00;99137.38;5072405;28;20031;-61
2023/10/29 08:21:49;;;;;;;3.95;1.48;;;;;;;11.80;100.00;99136.47;5069955;28;20020;-62
2023/10/29 08:24:15;;;;;;;7.68;1.38;;;;;;;11.90;100.00;99147.72;5069975;28;20156;-62
2023/10/29 08:26:40;;;;;;;8.02;1.67;;;;;;;11.97;100.00;99158.97;5081504;28;20016;-61
2023/10/29 08:29:06;;;;;;;7.82;1.58;;;;;;;12.05;100.00;99156.38;5067104;28;20597;-62
2023/10/29 08:31:31;;;;;;;5.07;1.05;;;;;;;12.16;100.00;99161.59;5066802;28;20024;-63
2023/10/29 08:33:56;;;;;;;9.35;1.45;;;;;;;12.23;100.00;99140.78;5059942;28;20106;-62
2023/10/29 08:36:22;;;;;;;5.05;1.30;;;;;;;12.30;100.00;99156.38;5049563;28;20025;-63
2023/10/29 08:38:47;;;;;;;7.50;1.48;;;;;;;12.39;100.00;99155.47;5058259;28;20103;-63
2023/10/29 08:41:14;;;;;;;7.38;1.17;;;;;;;12.51;100.00;99164.97;5071366;28;20118;-62
2023/10/29 08:43:41;;;;;;;4.95;1.00;;;;;;;12.63;100.00;99159.72;5056449;28;20049;-61
2023/10/29 08:46:06;;;;;;;6.68;1.63;;;;;;;12.75;100.00;99170.97;5054150;28;20021;-62
2023/10/29 08:48:32;;;;;;;2.45;1.00;;;;;;;12.83;100.00;99166.59;5063342;28;20542;-64
2023/10/29 08:50:57;;;;;;;6.40;1.00;;;;;;;12.87;100.00;99198.63;5064997;28;20025;-62
2023/10/29 08:53:22;;;;;;;6.80;1.63;;;;;;;12.84;100.00;99189.13;5063357;28;20487;-62
2023/10/29 08:55:48;;;;;;;4.40;1.33;;;;;;;12.80;100.00;99201.28;5053065;28;20025;-63
2023/10/29 08:58:13;;;;;;;8.20;1.35;;;;;;;12.79;100.00;99207.31;5064123;28;20024;-63
2023/10/29 09:00:40;;;;;;;5.20;1.30;;;;;;;12.80;100.00;99218.59;5071750;28;20480;-63
2023/10/29 09:03:05;;;;;;;7.32;1.73;;;;;;;12.83;100.00;99218.59;5055025;28;20029;-61
2023/10/29 09:05:30;;;;;;;6.25;1.35;;;;;;;12.86;100.00;99223.78;5067476;28;20384;-62
2023/10/29 09:07:56;;;;;;;5.47;1.05;;;;;;;12.87;100.00;99233.31;5074867;28;20025;-61
2023/10/29 09:10:21;;;;;;;7.22;1.10;;;;;;;12.85;100.00;99233.31;5081546;28;20451;-62
2023/10/29 09:12:46;;;;;;;5.88;1.17;;;;;;;12.87;100.00;99245.44;5085148;28;20411;-63
2023/10/29 09:15:12;;;;;;;3.65;1.50;;;;;;;12.82;100.00;99243.72;5083164;28;20021;-62
2023/10/29 09:17:37;;;;;;;7.13;1.25;;;;;;;12.83;100.00;99244.56;5063940;28;20059;-62
2023/10/29 09:20:03;;;;;;;7.38;1.38;;;;;;;12.80;100.00;99239.38;5074485;28;20024;-63
2023/10/29 09:22:29;;;;;;;5.97;1.27;;;;;;;12.73;100.00;99249.81;5061063;28;20051;-62
2023/10/29 09:24:54;;;;;;;7.15;1.05;;;;;;;12.71;100.00;99251.56;5066671;28;20464;-62
2023/10/29 09:27:19;;;;;;;7.20;1.42;;;;;;;12.67;100.00;99248.94;5082078;28;20055;-62
2023/10/29 09:29:45;;;;;;;8.15;1.30;;;;;;;12.68;100.00;99248.09;5058395;28;20489;-62
2023/10/29 09:32:13;;;;;;;5.63;1.38;;;;;;;12.70;100.00;99249.81;5066729;28;20024;-63
2023/10/29 09:34:40;;;;;;;12.35;1.90;;;;;;;12.77;100.00;99252.41;5079267;28;20032;-62
2023/10/29 09:37:05;;;;;;;5.45;1.63;;;;;;;12.79;100.00;99250.66;5053966;28;20071;-62
2023/10/29 09:39:31;;;;;;;5.47;1.02;;;;;;;12.83;100.00;99252.38;5061758;28;20053;-63
2023/10/29 09:42:08;;;;;;;6.95;1.70;;;;;;;12.85;100.00;99248.91;5053822;28;20044;-62
2023/10/29 09:44:33;;;;;;;7.95;1.25;;;;;;;12.84;100.00;99254.13;5052992;28;20037;-62
2023/10/29 09:47:09;;;;;;;6.20;1.20;;;;;;;12.82;100.00;99256.72;5070344;28;20085;-63
2023/10/29 09:49:37;;;;;;;9.25;1.40;;;;;;;12.84;100.00;99256.72;5073883;28;20047;-62
2023/10/29 09:52:03;;;;;;;6.20;1.52;;;;;;;12.83;100.00;99252.38;5090442;28;20620;-63
2023/10/29 09:54:29;;;;;;;4.97;1.13;;;;;;;12.82;100.00;99259.31;5077482;28;20436;-62
2023/10/29 09:56:54;;;;;;;4.85;1.20;;;;;;;12.83;100.00;99252.38;5090665;28;20024;-62
2023/10/29 09:59:19;;;;;;;10.35;1.58;;;;;;;12.85;100.00;99253.25;5084968;28;20074;-62
2023/10/29 10:01:44;;;;;;;6.70;1.60;;;;;;;12.87;100.00;99246.31;5071782;28;20024;-62
2023/10/29 10:04:10;;;;;;;6.93;1.35;;;;;;;12.86;100.00;99226.41;5071745;28;20025;-62
2023/10/29 10:06:36;;;;;;;4.30;0.90;;;;;;;12.89;100.00;99226.38;5070021;28;20070;-62
2023/10/29 10:09:02;;;;;;;8.85;1.75;;;;;;;12.87;100.00;99235.03;5073382;28;20155;-62
2023/10/29 10:11:27;;;;;;;4.22;1.13;;;;;;;12.85;100.00;99240.25;5060881;28;20437;-62
2023/10/29 10:13:53;;;;;;;6.85;1.45;;;;;;;12.86;100.00;99231.59;5055928;28;20021;-61
2023/10/29 10:16:19;;;;;;;4.03;1.45;;;;;;;12.87;100.00;99235.91;5052328;28;20454;-62
2023/10/29 10:18:58;;;;;;;6.32;1.30;;;;;;;12.84;100.00;99230.72;5069924;28;20460;-62
2023/10/29 10:21:50;;;;;;;7.03;1.33;;;;;;;12.80;100.00;99224.66;5060389;28;20025;-63
2023/10/29 10:24:16;;;;;;;8.55;1.52;;;;;;;12.79;100.00;99225.53;5078891;28;20048;-63
2023/10/29 10:26:41;;;;;;;4.85;1.15;;;;;;;12.79;100.00;99216.88;5081827;28;20028;-62
2023/10/29 10:29:08;;;;;;;8.30;1.30;;;;;;;12.79;100.00;99209.09;5072589;28;20499;-63
2023/10/29 10:31:35;;;;;;;8.02;1.60;;;;;;;12.79;100.00;99214.28;5073293;28;20107;-62
2023/10/29 10:34:10;;;;;;;4.47;1.10;;;;;;;12.80;100.00;99219.47;5072964;28;20024;-62
2023/10/29 10:36:36;;;;;;;8.50;1.75;;;;;;;12.83;100.00;99229.84;5078647;28;20118;-61
2023/10/29 10:39:02;;;;;;;5.65;1.15;;;;;;;12.87;100.00;99230.72;5068485;28;20049;-62
2023/10/29 10:41:44;;;;;;;5.35;1.20;;;;;;;12.94;100.00;99232.41;5068394;28;20036;-63
2023/10/29 10:44:14;;;;;;;4.78;1.20;;;;;;;12.97;100.00;99240.19;5053295;28;20582;-63
2023/10/29 10:46:50;;;;;;;3.57;1.37;;;;;;;12.99;100.00;99250.59;5049660;28;20060;-62
2023/10/29 10:49:16;;;;;;;2.60;0.90;;;;;;;13.02;100.00;99262.72;5058870;28;20015;-61
2023/10/29 10:51:42;;;;;;;7.25;1.45;;;;;;;13.03;100.00;99265.31;5088612;28;20024;-62
2023/10/29 10:54:07;;;;;;;5.22;1.40;;;;;;;12.99;100.00;99254.94;5076252;28;20188;-62
2023/10/29 10:56:36;;;;;;;6.18;1.70;;;;;;;12.95;100.00;99262.72;5073207;28;20036;-62
2023/10/29 10:59:09;;;;;;;9.10;1.45;;;;;;;12.92;100.00;99262.75;5080312;28;20029;-62
2023/10/29 11:01:35;;;;;;;10.88;1.85;;;;;;;12.88;100.00;99257.56;5068353;28;20031;-62
2023/10/29 11:04:03;;;;;;;6.20;1.38;;;;;;;12.83;100.00;99258.44;5090636;28;20033;-62
2023/10/29 11:06:29;;;;;;;6.70;1.42;;;;;;;12.81;100.00;99259.31;5072564;28;20024;-61
2023/10/29 11:08:55;;;;;;;4.75;1.30;;;;;;;12.77;100.00;99260.19;5062142;28;20037;-62
2023/10/29 11:11:28;;;;;;;7.25;1.55;;;;;;;12.72;100.00;99257.59;5063866;28;20024;-62
2023/10/29 11:14:14;;;;;;;7.07;1.70;;;;;;;12.70;100.00;99259.34;5079516;28;20173;-63
2023/10/29 11:16:49;;;;;;;7.38;1.55;;;;;;;12.67;100.00;99248.94;5082653;28;20031;-62
2023/10/29 11:19:33;;;;;;;6.13;1.40;;;;;;;12.63;100.00;99250.69;5086377;28;20424;-62